sensor_id;sensor_type;location;lat;lon;timestamp;P1;durP1;ratioP1;P2;durP2;ratioP2
80104;SDS011;69865;47.648;19.030;2023-09-07T00:00:07;6.47;;;6.47;;
80104;SDS011;69865;47.648;19.030;2023-09-07T00:00:40;6.77;;;6.77;;
80104;SDS011;69865;47.648;19.030;2023-09-07T00:01:12;6.70;;;6.70;;
80104;SDS011;69865;47.648;19.030;2023-09-07T00:01:44;6.77;;;6.77;;
80104;SDS011;69865;47.648;19.030;2023-09-07T00:02:16;6.17;;;6.17;;
80104;SDS011;69865;47.648;19.030;2023-09-07T00:02:59;6.07;;;6.07;;
80104;SDS011;69865;47.648;19.030;2023-09-07T00:03:31;6.27;;;6.27;;
80104;SDS011;69865;47.648;19.030;2023-09-07T00:04:03;6.93;;;6.93;;
80104;SDS011;69865;47.648;19.030;2023-09-07T00:04:36;6.87;;;6.87;;
80104;SDS011;69865;47.648;19.030;2023-09-07T00:05:08;6.83;;;6.83;;
80104;SDS011;69865;47.648;19.030;2023-09-07T00:05:41;6.80;;;6.80;;
80104;SDS011;69865;47.648;19.030;2023-09-07T00:06:13;6.67;;;6.67;;
80104;SDS011;69865;47.648;19.030;2023-09-07T00:06:45;6.67;;;6.67;;
80104;SDS011;69865;47.648;19.030;2023-09-07T00:07:17;6.67;;;6.67;;
80104;SDS011;69865;47.648;19.030;2023-09-07T00:07:49;7.00;;;7.00;;
80104;SDS011;69865;47.648;19.030;2023-09-07T00:08:23;6.87;;;6.87;;
80104;SDS011;69865;47.648;19.030;2023-09-07T00:08:55;7.20;;;7.20;;
80104;SDS011;69865;47.648;19.030;2023-09-07T00:09:27;6.90;;;6.90;;
80104;SDS011;69865;47.648;19.030;2023-09-07T00:09:59;6.60;;;6.60;;
80104;SDS011;69865;47.648;19.030;2023-09-07T00:10:31;6.90;;;6.90;;
80104;SDS011;69865;47.648;19.030;2023-09-07T00:11:04;6.63;;;6.63;;
80104;SDS011;69865;47.648;19.030;2023-09-07T00:11:36;6.77;;;6.77;;
80104;SDS011;69865;47.648;19.030;2023-09-07T00:12:09;6.33;;;6.33;;
80104;SDS011;69865;47.648;19.030;2023-09-07T00:12:41;6.70;;;6.70;;
80104;SDS011;69865;47.648;19.030;2023-09-07T00:13:13;6.60;;;6.60;;
80104;SDS011;69865;47.648;19.030;2023-09-07T00:13:45;6.97;;;6.97;;
80104;SDS011;69865;47.648;19.030;2023-09-07T00:14:17;6.80;;;6.80;;
80104;SDS011;69865;47.648;19.030;2023-09-07T00:14:49;7.00;;;7.00;;
80104;SDS011;69865;47.648;19.030;2023-09-07T00:15:21;6.93;;;6.93;;
80104;SDS011;69865;47.648;19.030;2023-09-07T00:15:57;6.80;;;6.80;;
80104;SDS011;69865;47.648;19.030;2023-09-07T00:16:31;6.97;;;6.97;;
80104;SDS011;69865;47.648;19.030;2023-09-07T00:17:03;6.70;;;6.70;;
80104;SDS011;69865;47.648;19.030;2023-09-07T00:17:36;6.73;;;6.73;;
80104;SDS011;69865;47.648;19.030;2023-09-07T00:18:08;6.73;;;6.73;;
80104;SDS011;69865;47.648;19.030;2023-09-07T00:18:40;6.63;;;6.63;;
80104;SDS011;69865;47.648;19.030;2023-09-07T00:19:12;6.20;;;6.20;;
80104;SDS011;69865;47.648;19.030;2023-09-07T00:19:44;6.53;;;6.53;;
80104;SDS011;69865;47.648;19.030;2023-09-07T00:20:16;6.77;;;6.77;;
80104;SDS011;69865;47.648;19.030;2023-09-07T00:20:48;6.60;;;6.60;;
80104;SDS011;69865;47.648;19.030;2023-09-07T00:21:20;5.90;;;5.90;;
80104;SDS011;69865;47.648;19.030;2023-09-07T00:21:52;6.53;;;6.53;;
80104;SDS011;69865;47.648;19.030;2023-09-07T00:22:24;6.97;;;6.97;;
80104;SDS011;69865;47.648;19.030;2023-09-07T00:22:56;6.57;;;6.57;;
80104;SDS011;69865;47.648;19.030;2023-09-07T00:23:30;6.93;;;6.93;;
80104;SDS011;69865;47.648;19.030;2023-09-07T00:24:02;6.40;;;6.40;;
80104;SDS011;69865;47.648;19.030;2023-09-07T00:24:34;6.27;;;6.27;;
80104;SDS011;69865;47.648;19.030;2023-09-07T00:25:06;6.17;;;6.17;;
80104;SDS011;69865;47.648;19.030;2023-09-07T00:25:39;6.83;;;6.83;;
80104;SDS011;69865;47.648;19.030;2023-09-07T00:26:11;7.03;;;7.03;;
80104;SDS011;69865;47.648;19.030;2023-09-07T00:26:44;6.57;;;6.57;;
80104;SDS011;69865;47.648;19.030;2023-09-07T00:27:17;6.67;;;6.67;;
80104;SDS011;69865;47.648;19.030;2023-09-07T00:27:49;6.67;;;6.67;;
80104;SDS011;69865;47.648;19.030;2023-09-07T00:28:21;6.33;;;6.33;;
80104;SDS011;69865;47.648;19.030;2023-09-07T00:28:53;7.17;;;7.17;;
80104;SDS011;69865;47.648;19.030;2023-09-07T00:29:25;6.63;;;6.63;;
80104;SDS011;69865;47.648;19.030;2023-09-07T00:29:57;6.67;;;6.67;;
80104;SDS011;69865;47.648;19.030;2023-09-07T00:30:30;7.37;;;7.37;;
80104;SDS011;69865;47.648;19.030;2023-09-07T00:31:02;6.67;;;6.67;;
80104;SDS011;69865;47.648;19.030;2023-09-07T00:31:34;6.50;;;6.50;;
80104;SDS011;69865;47.648;19.030;2023-09-07T00:32:06;6.80;;;6.80;;
80104;SDS011;69865;47.648;19.030;2023-09-07T00:32:38;6.97;;;6.97;;
80104;SDS011;69865;47.648;19.030;2023-09-07T00:33:10;6.93;;;6.93;;
80104;SDS011;69865;47.648;19.030;2023-09-07T00:33:42;7.07;;;7.07;;
80104;SDS011;69865;47.648;19.030;2023-09-07T00:34:14;6.77;;;6.77;;
80104;SDS011;69865;47.648;19.030;2023-09-07T00:34:47;6.70;;;6.70;;
80104;SDS011;69865;47.648;19.030;2023-09-07T00:35:19;6.90;;;6.90;;
80104;SDS011;69865;47.648;19.030;2023-09-07T00:35:51;7.23;;;7.23;;
80104;SDS011;69865;47.648;19.030;2023-09-07T00:36:23;7.17;;;7.17;;
80104;SDS011;69865;47.648;19.030;2023-09-07T00:36:56;7.00;;;7.00;;
80104;SDS011;69865;47.648;19.030;2023-09-07T00:37:28;6.70;;;6.70;;
80104;SDS011;69865;47.648;19.030;2023-09-07T00:38:00;6.63;;;6.63;;
80104;SDS011;69865;47.648;19.030;2023-09-07T00:38:34;6.77;;;6.77;;
80104;SDS011;69865;47.648;19.030;2023-09-07T00:39:06;6.83;;;6.83;;
80104;SDS011;69865;47.648;19.030;2023-09-07T00:39:38;6.87;;;6.87;;
80104;SDS011;69865;47.648;19.030;2023-09-07T00:40:10;6.80;;;6.80;;
80104;SDS011;69865;47.648;19.030;2023-09-07T00:40:42;6.73;;;6.73;;
80104;SDS011;69865;47.648;19.030;2023-09-07T00:41:15;6.50;;;6.50;;
80104;SDS011;69865;47.648;19.030;2023-09-07T00:41:47;6.57;;;6.57;;
80104;SDS011;69865;47.648;19.030;2023-09-07T00:42:19;6.27;;;6.27;;
80104;SDS011;69865;47.648;19.030;2023-09-07T00:42:51;6.50;;;6.50;;
80104;SDS011;69865;47.648;19.030;2023-09-07T00:43:23;7.10;;;7.10;;
80104;SDS011;69865;47.648;19.030;2023-09-07T00:43:56;8.00;;;8.00;;
80104;SDS011;69865;47.648;19.030;2023-09-07T00:44:28;6.83;;;6.83;;
80104;SDS011;69865;47.648;19.030;2023-09-07T00:45:00;7.17;;;7.17;;
80104;SDS011;69865;47.648;19.030;2023-09-07T00:45:32;7.10;;;7.10;;
80104;SDS011;69865;47.648;19.030;2023-09-07T00:46:04;7.57;;;7.57;;
80104;SDS011;69865;47.648;19.030;2023-09-07T00:46:37;7.47;;;7.47;;
80104;SDS011;69865;47.648;19.030;2023-09-07T00:47:09;7.37;;;7.37;;
80104;SDS011;69865;47.648;19.030;2023-09-07T00:47:42;7.00;;;7.00;;
80104;SDS011;69865;47.648;19.030;2023-09-07T00:48:14;7.40;;;7.40;;
80104;SDS011;69865;47.648;19.030;2023-09-07T00:48:47;7.63;;;7.63;;
80104;SDS011;69865;47.648;19.030;2023-09-07T00:49:20;6.93;;;6.93;;
80104;SDS011;69865;47.648;19.030;2023-09-07T00:49:52;7.40;;;7.40;;
80104;SDS011;69865;47.648;19.030;2023-09-07T00:50:24;7.90;;;7.90;;
80104;SDS011;69865;47.648;19.030;2023-09-07T00:50:56;7.77;;;7.77;;
80104;SDS011;69865;47.648;19.030;2023-09-07T00:51:28;7.60;;;7.60;;
80104;SDS011;69865;47.648;19.030;2023-09-07T00:52:00;6.60;;;6.60;;
80104;SDS011;69865;47.648;19.030;2023-09-07T00:52:33;6.60;;;6.60;;
80104;SDS011;69865;47.648;19.030;2023-09-07T00:53:07;6.90;;;6.90;;
80104;SDS011;69865;47.648;19.030;2023-09-07T00:53:41;7.43;;;7.43;;
80104;SDS011;69865;47.648;19.030;2023-09-07T00:54:14;7.17;;;7.17;;
80104;SDS011;69865;47.648;19.030;2023-09-07T00:54:46;7.37;;;7.37;;
80104;SDS011;69865;47.648;19.030;2023-09-07T00:55:18;7.33;;;7.33;;
80104;SDS011;69865;47.648;19.030;2023-09-07T00:55:51;7.13;;;7.13;;
80104;SDS011;69865;47.648;19.030;2023-09-07T00:56:23;7.07;;;7.07;;
80104;SDS011;69865;47.648;19.030;2023-09-07T00:56:57;6.63;;;6.63;;
80104;SDS011;69865;47.648;19.030;2023-09-07T00:57:29;7.07;;;7.07;;
80104;SDS011;69865;47.648;19.030;2023-09-07T00:58:01;7.23;;;7.23;;
80104;SDS011;69865;47.648;19.030;2023-09-07T00:58:34;7.60;;;7.60;;
80104;SDS011;69865;47.648;19.030;2023-09-07T00:59:08;7.47;;;7.40;;
80104;SDS011;69865;47.648;19.030;2023-09-07T00:59:41;7.93;;;7.93;;
80104;SDS011;69865;47.648;19.030;2023-09-07T01:00:13;7.17;;;7.17;;
80104;SDS011;69865;47.648;19.030;2023-09-07T01:00:46;7.67;;;7.67;;
80104;SDS011;69865;47.648;19.030;2023-09-07T01:01:18;7.30;;;7.30;;
80104;SDS011;69865;47.648;19.030;2023-09-07T01:01:50;7.03;;;7.03;;
80104;SDS011;69865;47.648;19.030;2023-09-07T01:02:22;6.43;;;6.43;;
80104;SDS011;69865;47.648;19.030;2023-09-07T01:02:55;6.60;;;6.60;;
80104;SDS011;69865;47.648;19.030;2023-09-07T01:03:27;7.07;;;7.07;;
80104;SDS011;69865;47.648;19.030;2023-09-07T01:04:00;6.40;;;6.40;;
80104;SDS011;69865;47.648;19.030;2023-09-07T01:04:32;6.67;;;6.67;;
80104;SDS011;69865;47.648;19.030;2023-09-07T01:05:04;7.10;;;7.10;;
80104;SDS011;69865;47.648;19.030;2023-09-07T01:05:40;7.17;;;7.17;;
80104;SDS011;69865;47.648;19.030;2023-09-07T01:06:20;6.90;;;6.90;;
80104;SDS011;69865;47.648;19.030;2023-09-07T01:06:59;7.27;;;7.27;;
80104;SDS011;69865;47.648;19.030;2023-09-07T01:07:37;6.87;;;6.87;;
80104;SDS011;69865;47.648;19.030;2023-09-07T01:08:15;6.20;;;6.20;;
80104;SDS011;69865;47.648;19.030;2023-09-07T01:09:00;6.47;;;6.47;;
80104;SDS011;69865;47.648;19.030;2023-09-07T01:09:35;6.40;;;6.40;;
80104;SDS011;69865;47.648;19.030;2023-09-07T01:10:11;6.60;;;6.60;;
80104;SDS011;69865;47.648;19.030;2023-09-07T01:10:44;6.17;;;6.17;;
80104;SDS011;69865;47.648;19.030;2023-09-07T01:11:16;6.83;;;6.83;;
80104;SDS011;69865;47.648;19.030;2023-09-07T01:11:49;6.47;;;6.47;;
80104;SDS011;69865;47.648;19.030;2023-09-07T01:12:21;6.27;;;6.27;;
80104;SDS011;69865;47.648;19.030;2023-09-07T01:12:53;6.67;;;6.67;;
80104;SDS011;69865;47.648;19.030;2023-09-07T01:13:25;6.30;;;6.30;;
80104;SDS011;69865;47.648;19.030;2023-09-07T01:13:58;6.67;;;6.67;;
80104;SDS011;69865;47.648;19.030;2023-09-07T01:14:30;6.63;;;6.63;;
80104;SDS011;69865;47.648;19.030;2023-09-07T01:15:02;6.57;;;6.57;;
80104;SDS011;69865;47.648;19.030;2023-09-07T01:15:34;6.70;;;6.70;;
80104;SDS011;69865;47.648;19.030;2023-09-07T01:16:07;6.63;;;6.63;;
80104;SDS011;69865;47.648;19.030;2023-09-07T01:16:39;6.67;;;6.67;;
80104;SDS011;69865;47.648;19.030;2023-09-07T01:17:13;6.57;;;6.57;;
80104;SDS011;69865;47.648;19.030;2023-09-07T01:17:46;6.77;;;6.77;;
80104;SDS011;69865;47.648;19.030;2023-09-07T01:18:19;6.57;;;6.57;;
80104;SDS011;69865;47.648;19.030;2023-09-07T01:18:56;6.80;;;6.80;;
80104;SDS011;69865;47.648;19.030;2023-09-07T01:19:28;6.77;;;6.77;;
80104;SDS011;69865;47.648;19.030;2023-09-07T01:20:02;6.67;;;6.67;;
80104;SDS011;69865;47.648;19.030;2023-09-07T01:20:37;6.80;;;6.80;;
80104;SDS011;69865;47.648;19.030;2023-09-07T01:21:12;6.70;;;6.70;;
80104;SDS011;69865;47.648;19.030;2023-09-07T01:21:47;6.83;;;6.83;;
80104;SDS011;69865;47.648;19.030;2023-09-07T01:22:20;7.07;;;7.07;;
80104;SDS011;69865;47.648;19.030;2023-09-07T01:22:53;6.43;;;6.43;;
80104;SDS011;69865;47.648;19.030;2023-09-07T01:23:26;6.40;;;6.40;;
80104;SDS011;69865;47.648;19.030;2023-09-07T01:23:58;6.97;;;6.97;;
80104;SDS011;69865;47.648;19.030;2023-09-07T01:24:31;6.63;;;6.63;;
80104;SDS011;69865;47.648;19.030;2023-09-07T01:25:05;6.63;;;6.63;;
80104;SDS011;69865;47.648;19.030;2023-09-07T01:25:39;7.33;;;7.17;;
80104;SDS011;69865;47.648;19.030;2023-09-07T01:26:12;6.77;;;6.77;;
80104;SDS011;69865;47.648;19.030;2023-09-07T01:26:44;7.07;;;7.07;;
80104;SDS011;69865;47.648;19.030;2023-09-07T01:27:16;6.70;;;6.70;;
80104;SDS011;69865;47.648;19.030;2023-09-07T01:27:49;6.73;;;6.73;;
80104;SDS011;69865;47.648;19.030;2023-09-07T01:28:22;7.40;;;7.40;;
80104;SDS011;69865;47.648;19.030;2023-09-07T01:28:54;7.57;;;7.57;;
80104;SDS011;69865;47.648;19.030;2023-09-07T01:29:26;6.70;;;6.70;;
80104;SDS011;69865;47.648;19.030;2023-09-07T01:29:58;6.53;;;6.53;;
80104;SDS011;69865;47.648;19.030;2023-09-07T01:30:30;6.27;;;6.27;;
80104;SDS011;69865;47.648;19.030;2023-09-07T01:31:02;6.37;;;6.37;;
80104;SDS011;69865;47.648;19.030;2023-09-07T01:31:35;6.23;;;6.23;;
80104;SDS011;69865;47.648;19.030;2023-09-07T01:32:07;7.03;;;7.03;;
80104;SDS011;69865;47.648;19.030;2023-09-07T01:32:39;7.20;;;7.20;;
80104;SDS011;69865;47.648;19.030;2023-09-07T01:33:11;6.97;;;6.97;;
80104;SDS011;69865;47.648;19.030;2023-09-07T01:33:43;6.57;;;6.57;;
80104;SDS011;69865;47.648;19.030;2023-09-07T01:34:15;6.77;;;6.77;;
80104;SDS011;69865;47.648;19.030;2023-09-07T01:34:47;6.80;;;6.80;;
80104;SDS011;69865;47.648;19.030;2023-09-07T01:35:20;6.87;;;6.87;;
80104;SDS011;69865;47.648;19.030;2023-09-07T01:35:54;6.80;;;6.80;;
80104;SDS011;69865;47.648;19.030;2023-09-07T01:36:27;6.50;;;6.43;;
80104;SDS011;69865;47.648;19.030;2023-09-07T01:37:00;6.43;;;6.43;;
80104;SDS011;69865;47.648;19.030;2023-09-07T01:37:32;6.67;;;6.67;;
80104;SDS011;69865;47.648;19.030;2023-09-07T01:38:04;6.70;;;6.70;;
80104;SDS011;69865;47.648;19.030;2023-09-07T01:38:36;6.40;;;6.37;;
80104;SDS011;69865;47.648;19.030;2023-09-07T01:39:08;6.90;;;6.90;;
80104;SDS011;69865;47.648;19.030;2023-09-07T01:39:41;6.90;;;6.83;;
80104;SDS011;69865;47.648;19.030;2023-09-07T01:40:13;6.70;;;6.63;;
80104;SDS011;69865;47.648;19.030;2023-09-07T01:40:45;6.57;;;6.57;;
80104;SDS011;69865;47.648;19.030;2023-09-07T01:41:17;6.27;;;6.27;;
80104;SDS011;69865;47.648;19.030;2023-09-07T01:41:49;7.00;;;7.00;;
80104;SDS011;69865;47.648;19.030;2023-09-07T01:42:21;6.80;;;6.80;;
80104;SDS011;69865;47.648;19.030;2023-09-07T01:42:53;6.80;;;6.80;;
80104;SDS011;69865;47.648;19.030;2023-09-07T01:43:25;6.77;;;6.77;;
80104;SDS011;69865;47.648;19.030;2023-09-07T01:43:57;6.70;;;6.70;;
80104;SDS011;69865;47.648;19.030;2023-09-07T01:44:30;6.60;;;6.60;;
80104;SDS011;69865;47.648;19.030;2023-09-07T01:45:02;6.87;;;6.87;;
80104;SDS011;69865;47.648;19.030;2023-09-07T01:45:34;6.80;;;6.80;;
80104;SDS011;69865;47.648;19.030;2023-09-07T01:46:06;6.37;;;6.37;;
80104;SDS011;69865;47.648;19.030;2023-09-07T01:46:38;6.90;;;6.90;;
80104;SDS011;69865;47.648;19.030;2023-09-07T01:47:10;6.93;;;6.93;;
80104;SDS011;69865;47.648;19.030;2023-09-07T01:47:43;6.47;;;6.47;;
80104;SDS011;69865;47.648;19.030;2023-09-07T01:48:15;7.07;;;7.07;;
80104;SDS011;69865;47.648;19.030;2023-09-07T01:48:47;7.33;;;7.33;;
80104;SDS011;69865;47.648;19.030;2023-09-07T01:49:19;6.63;;;6.63;;
80104;SDS011;69865;47.648;19.030;2023-09-07T01:49:52;7.27;;;7.27;;
80104;SDS011;69865;47.648;19.030;2023-09-07T01:50:24;6.70;;;6.70;;
80104;SDS011;69865;47.648;19.030;2023-09-07T01:50:56;6.70;;;6.70;;
80104;SDS011;69865;47.648;19.030;2023-09-07T01:51:28;6.90;;;6.90;;
80104;SDS011;69865;47.648;19.030;2023-09-07T01:52:01;6.80;;;6.80;;
80104;SDS011;69865;47.648;19.030;2023-09-07T01:52:34;6.63;;;6.63;;
80104;SDS011;69865;47.648;19.030;2023-09-07T01:53:06;6.83;;;6.83;;
80104;SDS011;69865;47.648;19.030;2023-09-07T01:53:38;6.43;;;6.43;;
80104;SDS011;69865;47.648;19.030;2023-09-07T01:54:10;6.70;;;6.70;;
80104;SDS011;69865;47.648;19.030;2023-09-07T01:54:42;6.83;;;6.83;;
80104;SDS011;69865;47.648;19.030;2023-09-07T01:55:14;7.10;;;7.10;;
80104;SDS011;69865;47.648;19.030;2023-09-07T01:55:46;6.73;;;6.73;;
80104;SDS011;69865;47.648;19.030;2023-09-07T01:56:18;7.27;;;7.27;;
80104;SDS011;69865;47.648;19.030;2023-09-07T01:56:51;6.83;;;6.83;;
80104;SDS011;69865;47.648;19.030;2023-09-07T01:57:23;6.47;;;6.47;;
80104;SDS011;69865;47.648;19.030;2023-09-07T01:57:55;6.53;;;6.53;;
80104;SDS011;69865;47.648;19.030;2023-09-07T01:58:27;7.27;;;7.27;;
80104;SDS011;69865;47.648;19.030;2023-09-07T01:59:00;7.20;;;7.20;;
80104;SDS011;69865;47.648;19.030;2023-09-07T01:59:32;6.87;;;6.87;;
80104;SDS011;69865;47.648;19.030;2023-09-07T02:00:04;6.40;;;6.40;;
80104;SDS011;69865;47.648;19.030;2023-09-07T02:00:37;6.37;;;6.37;;
80104;SDS011;69865;47.648;19.030;2023-09-07T02:01:19;6.63;;;6.63;;
80104;SDS011;69865;47.648;19.030;2023-09-07T02:01:52;6.63;;;6.63;;
80104;SDS011;69865;47.648;19.030;2023-09-07T02:02:24;7.07;;;7.07;;
80104;SDS011;69865;47.648;19.030;2023-09-07T02:02:56;6.80;;;6.80;;
80104;SDS011;69865;47.648;19.030;2023-09-07T02:03:29;7.13;;;7.13;;
80104;SDS011;69865;47.648;19.030;2023-09-07T02:04:01;6.57;;;6.57;;
80104;SDS011;69865;47.648;19.030;2023-09-07T02:04:33;6.90;;;6.90;;
80104;SDS011;69865;47.648;19.030;2023-09-07T02:05:05;7.27;;;7.27;;
80104;SDS011;69865;47.648;19.030;2023-09-07T02:05:38;7.50;;;7.50;;
80104;SDS011;69865;47.648;19.030;2023-09-07T02:06:10;7.60;;;7.60;;
80104;SDS011;69865;47.648;19.030;2023-09-07T02:06:42;7.13;;;7.13;;
80104;SDS011;69865;47.648;19.030;2023-09-07T02:07:16;6.80;;;6.80;;
80104;SDS011;69865;47.648;19.030;2023-09-07T02:07:48;6.73;;;6.73;;
80104;SDS011;69865;47.648;19.030;2023-09-07T02:08:20;6.60;;;6.60;;
80104;SDS011;69865;47.648;19.030;2023-09-07T02:08:52;7.10;;;7.10;;
80104;SDS011;69865;47.648;19.030;2023-09-07T02:09:24;6.73;;;6.73;;
80104;SDS011;69865;47.648;19.030;2023-09-07T02:09:56;6.77;;;6.77;;
80104;SDS011;69865;47.648;19.030;2023-09-07T02:10:28;6.63;;;6.63;;
80104;SDS011;69865;47.648;19.030;2023-09-07T02:11:01;7.20;;;7.20;;
80104;SDS011;69865;47.648;19.030;2023-09-07T02:11:33;6.73;;;6.73;;
80104;SDS011;69865;47.648;19.030;2023-09-07T02:12:05;6.83;;;6.83;;
80104;SDS011;69865;47.648;19.030;2023-09-07T02:12:38;6.47;;;6.47;;
80104;SDS011;69865;47.648;19.030;2023-09-07T02:13:10;6.57;;;6.57;;
80104;SDS011;69865;47.648;19.030;2023-09-07T02:13:42;7.13;;;7.13;;
80104;SDS011;69865;47.648;19.030;2023-09-07T02:14:15;6.67;;;6.67;;
80104;SDS011;69865;47.648;19.030;2023-09-07T02:14:47;7.43;;;7.43;;
80104;SDS011;69865;47.648;19.030;2023-09-07T02:15:19;7.47;;;7.47;;
80104;SDS011;69865;47.648;19.030;2023-09-07T02:15:51;7.73;;;7.73;;
80104;SDS011;69865;47.648;19.030;2023-09-07T02:16:24;7.20;;;7.20;;
80104;SDS011;69865;47.648;19.030;2023-09-07T02:16:56;7.20;;;7.20;;
80104;SDS011;69865;47.648;19.030;2023-09-07T02:17:28;7.17;;;7.17;;
80104;SDS011;69865;47.648;19.030;2023-09-07T02:18:00;6.90;;;6.90;;
80104;SDS011;69865;47.648;19.030;2023-09-07T02:18:32;6.77;;;6.77;;
80104;SDS011;69865;47.648;19.030;2023-09-07T02:19:05;7.23;;;7.23;;
80104;SDS011;69865;47.648;19.030;2023-09-07T02:19:38;7.37;;;7.37;;
80104;SDS011;69865;47.648;19.030;2023-09-07T02:20:10;7.23;;;7.23;;
80104;SDS011;69865;47.648;19.030;2023-09-07T02:20:42;8.00;;;8.00;;
80104;SDS011;69865;47.648;19.030;2023-09-07T02:21:15;8.07;;;8.07;;
80104;SDS011;69865;47.648;19.030;2023-09-07T02:21:47;8.23;;;8.23;;
80104;SDS011;69865;47.648;19.030;2023-09-07T02:22:20;7.27;;;7.27;;
80104;SDS011;69865;47.648;19.030;2023-09-07T02:22:52;7.03;;;7.03;;
80104;SDS011;69865;47.648;19.030;2023-09-07T02:23:24;7.43;;;7.43;;
80104;SDS011;69865;47.648;19.030;2023-09-07T02:23:56;7.57;;;7.57;;
80104;SDS011;69865;47.648;19.030;2023-09-07T02:24:28;7.90;;;7.90;;
80104;SDS011;69865;47.648;19.030;2023-09-07T02:25:00;7.57;;;7.57;;
80104;SDS011;69865;47.648;19.030;2023-09-07T02:25:32;7.37;;;7.37;;
80104;SDS011;69865;47.648;19.030;2023-09-07T02:26:04;7.50;;;7.50;;
80104;SDS011;69865;47.648;19.030;2023-09-07T02:26:36;7.17;;;7.17;;
80104;SDS011;69865;47.648;19.030;2023-09-07T02:27:08;7.13;;;7.13;;
80104;SDS011;69865;47.648;19.030;2023-09-07T02:27:40;7.60;;;7.60;;
80104;SDS011;69865;47.648;19.030;2023-09-07T02:28:13;7.30;;;7.30;;
80104;SDS011;69865;47.648;19.030;2023-09-07T02:28:45;7.67;;;7.67;;
80104;SDS011;69865;47.648;19.030;2023-09-07T02:29:17;7.20;;;7.20;;
80104;SDS011;69865;47.648;19.030;2023-09-07T02:29:49;6.50;;;6.50;;
80104;SDS011;69865;47.648;19.030;2023-09-07T02:30:21;6.77;;;6.77;;
80104;SDS011;69865;47.648;19.030;2023-09-07T02:30:53;6.93;;;6.93;;
80104;SDS011;69865;47.648;19.030;2023-09-07T02:31:25;7.67;;;7.67;;
80104;SDS011;69865;47.648;19.030;2023-09-07T02:31:58;7.30;;;7.30;;
80104;SDS011;69865;47.648;19.030;2023-09-07T02:32:30;7.03;;;7.03;;
80104;SDS011;69865;47.648;19.030;2023-09-07T02:33:03;7.00;;;7.00;;
80104;SDS011;69865;47.648;19.030;2023-09-07T02:33:35;7.23;;;7.23;;
80104;SDS011;69865;47.648;19.030;2023-09-07T02:34:07;7.17;;;7.17;;
80104;SDS011;69865;47.648;19.030;2023-09-07T02:34:40;6.90;;;6.90;;
80104;SDS011;69865;47.648;19.030;2023-09-07T02:35:12;7.23;;;7.23;;
80104;SDS011;69865;47.648;19.030;2023-09-07T02:35:44;7.03;;;7.03;;
80104;SDS011;69865;47.648;19.030;2023-09-07T02:36:16;7.43;;;7.43;;
80104;SDS011;69865;47.648;19.030;2023-09-07T02:36:48;7.17;;;7.17;;
80104;SDS011;69865;47.648;19.030;2023-09-07T02:37:22;7.67;;;7.67;;
80104;SDS011;69865;47.648;19.030;2023-09-07T02:37:54;7.70;;;7.70;;
80104;SDS011;69865;47.648;19.030;2023-09-07T02:38:26;7.53;;;7.53;;
80104;SDS011;69865;47.648;19.030;2023-09-07T02:38:58;7.90;;;7.90;;
80104;SDS011;69865;47.648;19.030;2023-09-07T02:39:30;6.97;;;6.97;;
80104;SDS011;69865;47.648;19.030;2023-09-07T02:40:02;7.03;;;7.03;;
80104;SDS011;69865;47.648;19.030;2023-09-07T02:40:39;7.87;;;7.87;;
80104;SDS011;69865;47.648;19.030;2023-09-07T02:41:12;7.80;;;7.80;;
80104;SDS011;69865;47.648;19.030;2023-09-07T02:41:44;7.53;;;7.53;;
80104;SDS011;69865;47.648;19.030;2023-09-07T02:42:16;7.13;;;7.13;;
80104;SDS011;69865;47.648;19.030;2023-09-07T02:42:48;7.23;;;7.23;;
80104;SDS011;69865;47.648;19.030;2023-09-07T02:43:20;7.80;;;7.80;;
80104;SDS011;69865;47.648;19.030;2023-09-07T02:43:52;8.20;;;8.20;;
80104;SDS011;69865;47.648;19.030;2023-09-07T02:44:24;8.40;;;8.40;;
80104;SDS011;69865;47.648;19.030;2023-09-07T02:44:56;7.90;;;7.90;;
80104;SDS011;69865;47.648;19.030;2023-09-07T02:45:28;8.03;;;8.03;;
80104;SDS011;69865;47.648;19.030;2023-09-07T02:46:01;7.80;;;7.80;;
80104;SDS011;69865;47.648;19.030;2023-09-07T02:46:33;7.77;;;7.77;;
80104;SDS011;69865;47.648;19.030;2023-09-07T02:47:05;8.03;;;8.03;;
80104;SDS011;69865;47.648;19.030;2023-09-07T02:47:37;8.00;;;8.00;;
80104;SDS011;69865;47.648;19.030;2023-09-07T02:48:09;7.47;;;7.47;;
80104;SDS011;69865;47.648;19.030;2023-09-07T02:48:42;7.43;;;7.43;;
80104;SDS011;69865;47.648;19.030;2023-09-07T02:49:14;8.07;;;8.07;;
80104;SDS011;69865;47.648;19.030;2023-09-07T02:49:46;8.03;;;8.03;;
80104;SDS011;69865;47.648;19.030;2023-09-07T02:50:18;7.83;;;7.83;;
80104;SDS011;69865;47.648;19.030;2023-09-07T02:50:50;7.77;;;7.77;;
80104;SDS011;69865;47.648;19.030;2023-09-07T02:51:22;7.57;;;7.57;;
80104;SDS011;69865;47.648;19.030;2023-09-07T02:51:54;7.50;;;7.50;;
80104;SDS011;69865;47.648;19.030;2023-09-07T02:52:28;8.03;;;8.03;;
80104;SDS011;69865;47.648;19.030;2023-09-07T02:53:00;7.47;;;7.47;;
80104;SDS011;69865;47.648;19.030;2023-09-07T02:53:32;7.87;;;7.87;;
80104;SDS011;69865;47.648;19.030;2023-09-07T02:54:04;7.63;;;7.63;;
80104;SDS011;69865;47.648;19.030;2023-09-07T02:54:37;7.50;;;7.50;;
80104;SDS011;69865;47.648;19.030;2023-09-07T02:55:09;7.67;;;7.67;;
80104;SDS011;69865;47.648;19.030;2023-09-07T02:55:41;7.63;;;7.63;;
80104;SDS011;69865;47.648;19.030;2023-09-07T02:56:13;7.73;;;7.73;;
80104;SDS011;69865;47.648;19.030;2023-09-07T02:56:45;7.57;;;7.57;;
80104;SDS011;69865;47.648;19.030;2023-09-07T02:57:17;7.33;;;7.33;;
80104;SDS011;69865;47.648;19.030;2023-09-07T02:57:49;7.07;;;7.07;;
80104;SDS011;69865;47.648;19.030;2023-09-07T02:58:21;7.23;;;7.23;;
80104;SDS011;69865;47.648;19.030;2023-09-07T02:58:54;7.50;;;7.50;;
80104;SDS011;69865;47.648;19.030;2023-09-07T02:59:26;7.43;;;7.43;;
80104;SDS011;69865;47.648;19.030;2023-09-07T02:59:59;7.27;;;7.27;;
80104;SDS011;69865;47.648;19.030;2023-09-07T03:00:31;7.37;;;7.37;;
80104;SDS011;69865;47.648;19.030;2023-09-07T03:01:05;6.90;;;6.90;;
80104;SDS011;69865;47.648;19.030;2023-09-07T03:01:38;6.83;;;6.83;;
80104;SDS011;69865;47.648;19.030;2023-09-07T03:02:10;7.40;;;7.40;;
80104;SDS011;69865;47.648;19.030;2023-09-07T03:02:42;7.33;;;7.33;;
80104;SDS011;69865;47.648;19.030;2023-09-07T03:03:14;7.13;;;7.13;;
80104;SDS011;69865;47.648;19.030;2023-09-07T03:03:47;7.10;;;7.10;;
80104;SDS011;69865;47.648;19.030;2023-09-07T03:04:20;7.27;;;7.27;;
80104;SDS011;69865;47.648;19.030;2023-09-07T03:04:53;7.17;;;7.17;;
80104;SDS011;69865;47.648;19.030;2023-09-07T03:05:26;7.23;;;7.23;;
80104;SDS011;69865;47.648;19.030;2023-09-07T03:05:58;7.50;;;7.50;;
80104;SDS011;69865;47.648;19.030;2023-09-07T03:06:39;7.23;;;7.10;;
80104;SDS011;69865;47.648;19.030;2023-09-07T03:07:11;7.07;;;7.07;;
80104;SDS011;69865;47.648;19.030;2023-09-07T03:07:45;7.00;;;7.00;;
80104;SDS011;69865;47.648;19.030;2023-09-07T03:08:18;6.80;;;6.80;;
80104;SDS011;69865;47.648;19.030;2023-09-07T03:08:50;6.93;;;6.93;;
80104;SDS011;69865;47.648;19.030;2023-09-07T03:09:22;6.30;;;6.30;;
80104;SDS011;69865;47.648;19.030;2023-09-07T03:09:54;6.43;;;6.43;;
80104;SDS011;69865;47.648;19.030;2023-09-07T03:10:26;7.23;;;7.23;;
80104;SDS011;69865;47.648;19.030;2023-09-07T03:10:58;7.80;;;7.80;;
80104;SDS011;69865;47.648;19.030;2023-09-07T03:11:34;7.00;;;7.00;;
80104;SDS011;69865;47.648;19.030;2023-09-07T03:12:06;6.57;;;6.57;;
80104;SDS011;69865;47.648;19.030;2023-09-07T03:12:38;7.17;;;7.17;;
80104;SDS011;69865;47.648;19.030;2023-09-07T03:13:10;6.73;;;6.73;;